Portada
METAR-TAF:

METAR-TAF

Aeropuertos :

Aeropuerto Internacional de Bania Luka

Bania Luka, Bosnia y Herzegovina

latitud: 44-47N, longitud: 017-13E, altitud: 156 m

Observación

El informe se hizo hace 35 minutos, a las 06:30 UTC
Viento 2 kt con dirección variable
Temperatura 3°C
Humedad 93%
Presión 1023 hPa
Visibilidad 10 km o más
sin nubes por debajo de 1500 m y sin presencia de cumulonimbus.

METAR: LQBK 160630Z VRB02KT CAVOK 03/02 Q1023 NOSIG

Hora: 09:05 (07:05 UTC)

Pronóstico

El informe se hizo hace 2 horas y 5 minutos, a las 05:00 UTC
Pronóstico válido del 16 a las 06 UTC al 17 a las 06 UTC
Viento 2 kt con dirección variable
Visibilidad 10 km o más
sin nubes por debajo de 1500 m y sin presencia de cumulonimbus.
Probabilidad 40% :
Temporalmente
del 16 a las 12 UTC al 16 a las 17 UTC
Viento 10 kt del noreste

TAF: LQBK 160500Z 1606/1706 VRB02KT CAVOK TX13/1614Z TN00/1606Z PROB40 TEMPO 1612/1617 05010KT

Observaciones y pronósticos meteorológicos de más de 4000 aeropuertos (mensajes METAR y TAF).

Los puntos amarillos y rojos representan las estaciones disponibles.

Ponga el ratón en el punto deseado para ver el nombre de la estación.

Haga clic para ver las observaciones y los pronósticos meteorológicos.

Para cambiar el mapa : haga clic en los botones verdes con una cruz de color negro para hacer un zoom, en el botón verde con un guión para alejar o en las flechas verdes para mapas adyacentes.


METAR-TAF: